Impacts TAF Board INFO
FOR SITUATIONAL AWARENESS. NOT TO BE USED FOR FLIGHT PLANNING PURPOSES.
IDs:

KGTR - Golden Triangle Arpt, MS, US

Issued at 1731 UTC 19 Jul 2018
Updated at 2315 UTC 19 Jul 2018
Potential Impact None Slight Moderate High
Time2256Z 20/00Z 20/01Z 20/02Z 20/03Z 20/04Z 20/05Z 20/06Z 20/07Z 20/08Z 20/09Z 20/10Z 20/11Z 20/12Z>>
Type OBS PRVL PRVL PRVL PRVL PRVL PRVL PRVL PRVL PRVL PRVL PRVL PRVL PRVL
VIS 10 >6 >6 >6 >6 >6 >6 >6 >6 >6 >6 >6 4 4
CIG -- -- -- -- -- -- -- -- -- -- -- -- -- --
Cover CLR FEW FEW FEW FEW FEW FEW FEW FEW FEW FEW FEW SCT SCT
FltCat VFR VFR VFR VFR VFR VFR VFR VFR VFR VFR VFR VFR MVFR MVFR
WX -- -- -- -- -- -- -- -- -- -- -- -- BR BR
WDir VRB 170 170 170 170 170 170 170 170 170 170 170 160 160
WSpd 0 5 5 5 5 5 5 5 5 5 5 5 4 4
WGst -- -- -- -- -- -- -- -- -- -- -- -- -- --

Raw TAF
KGTR 191731Z 1918/2018 21006KT P6SM VCTS SCT050CB BKN090
  FM192300 17005KT P6SM FEW090
  FM201100 16004KT 4SM BR FEW050 SCT250
  FM201300 17004KT P6SM FEW050 SCT250


Raw METAR
KGTR 192256Z 00000KT 10SM CLR 31/24 A2988 RMK AO2 SLP119 T03060244 PNO $
KGTR 192156Z 00000KT 10SM CLR 31/24 A2989 RMK AO2 SLP121 T03110244 PNO $
KGTR 192056Z 30004KT 10SM CLR 31/24 A2991 RMK AO2 SLP129 6//// T03060244 58012 PNO $

METAR Board
Radar Display
Forecast Discussion

FOR SITUATIONAL AWARENESS. NOT TO BE USED FOR FLIGHT PLANNING PURPOSES.